NEODyS-2

Near Earth Objects - Dynamic Site
NEODyS ∴ Observatories ∴ Site 691 ∴ Obs & residuals
Contact »
691  ▹ 
OBSERVATIONS AND RESIDUALS

691-Steward Observatory, Kitt Peak-Spacewatch

Detections | Residuals | Detections & Residuals

[1-200] [201-400] [401-600] [601-800] [801-1000] [1001-1200] [1201-1400] [1401-1600] [1601-1800] [1801-2000] [2001-2200] [2201-2400] [2401-2600] [2601-2800] [2801-3000] [3001-3200] [3201-3400] [3401-3600] [3601-3800] [3801-4000] [4001-4200] [4201-4400] [4401-4600] [4601-4800] [4801-5000] [5001-5200] [5201-5400] [5401-5600] [5601-5800] [5801-6000] [6001-6200] [6201-6400] [6401-6600] [6601-6800] [6801-7000] [7001-7200] [7201-7400] [7401-7600] [7601-7800] [7801-8000] [8001-8200] [8201-8400] [8401-8600] [8601-8800] [8801-9000] [9001-9200] [9201-9400] [9401-9600] [9601-9800] [9801-10000] [10001-10200] [10201-10400] [10401-10600] [10601-10800] [10801-11000] [11001-11200] [11201-11400] [11401-11600] [11601-11800] [11801-12000] [12001-12200] [12201-12400] [12401-12600] [12601-12800] [12801-13000] [13001-13200] [13201-13400] [13401-13600] [13601-13800] [13801-14000] [14001-14200] [14201-14400] [14401-14600] [14601-14800] [14801-15000] [15001-15200] [15201-15400] [15401-15600] [15601-15800] [15801-16000] [16001-16200] [16201-16400] [16401-16600] [16601-16800] [16801-17000] [17001-17200] [17201-17400] [17401-17600] [17601-17800] [17801-18000] [18001-18200] [18201-18400] [18401-18600] [18601-18800] [18801-19000] [19001-19200] [19201-19400] [19401-19600] [19601-19800] [19801-20000] [20001-20200] [20201-20400] [20401-20600] [20601-20800] [20801-21000] [21001-21200] [21201-21400] [21401-21600] [21601-21800] [21801-22000] [22001-22200] [22201-22400] [22401-22600] [22601-22800] [22801-23000] [23001-23200] [23201-23400] [23401-23600] [23601-23800] [23801-24000] [24001-24200] [24201-24400] [24401-24600] [24601-24800] [24801-25000] [25001-25200] [25201-25400] [25401-25600] [25601-25800] [25801-26000] [26001-26200] [26201-26400] [26401-26600] [26601-26800] [26801-27000] [27001-27200] [27201-27400] [27401-27600] [27601-27800] [27801-28000] [28001-28200] [28201-28400] [28401-28600] [28601-28800] [28801-29000] [29001-29200] [29201-29400] [29401-29600] [29601-29800] [29801-30000] [30001-30200] [30201-30400] [30401-30600] [30601-30800] [30801-31000] [31001-31200] [31201-31400] [31401-31600] [31601-31800] [31801-32000] [32001-32200] [32201-32400] [32401-32600] [32601-32800] [32801-33000] [33001-33200] [33201-33400] [33401-33600] [33601-33800] [33801-34000] [34001-34200] [34201-34400] [34401-34600] [34601-34800] [34801-35000] [35001-35200] [35201-35400] [35401-35600] [35601-35800] [35801-36000] [36001-36200] [36201-36400] [36401-36600] [36601-36800] [36801-37000] [37001-37200] [37201-37400] [37401-37600] [37601-37800] [37801-38000] [38001-38200] [38201-38400] [38401-38600] [38601-38800] [38801-39000] [39001-39200] [39201-39400] [39401-39600] [39601-39800] [39801-40000] [40001-40200] [40201-40400] [40401-40600] [40601-40800] [40801-41000] [41001-41200] [41201-41400] [41401-41600] [41601-41800] [41801-42000] [42001-42200] [42201-42400] [42401-42600] [42601-42800] [42801-43000] [43001-43200] [43201-43400] [43401-43600] [43601-43800] [43801-44000] [44001-44200] [44201-44400] [44401-44600] [44601-44800] [44801-45000] [45001-45200] [45201-45400] [45401-45600] [45601-45800] [45801-46000] [46001-46200] [46201-46400] [46401-46600] [46601-46800] [46801-47000] [47001-47200] [47201-47400] [47401-47600] [47601-47800] [47801-48000] [48001-48200] [48201-48400] [48401-48600] [48601-48800] [48801-49000] [49001-49200] [49201-49400] [49401-49600] [49601-49800] [49801-50000] [50001-50200] [50201-50400] [50401-50600] [50601-50741]

Designation T Tech N Date Right Ascension Declination Apparent Magnitude Star Catalog Site code χ Used A Used M
yr-mo-day precision hr:min:sec precision rms F bias residual deg min sec precision rms F bias residual mag/col rms residual
1993QA O c 1995-09-03.41602 1.000E-05 02:37:25.080 1.500E-01 0.600 F -0.718 -0.238 -01° 52' 24.30" 1.000E-01 0.600 F 0.162 0.369 19.5 V 0.70 0.03 i 691 0.73 Yes Yes
Cadmus O c 1995-09-03.44014 1.000E-05 02:36:09.350 1.500E-01 0.600 F -1.248 -0.352 -03° 26' 58.30" 1.000E-01 0.600 F -0.380 0.341 19.7 V 0.70 0.24 i 691 0.82 Yes Yes
Cadmus O c 1995-09-03.45872 1.000E-05 02:36:09.340 1.500E-01 0.600 F -1.248 0.039 -03° 27' 03.50" 1.000E-01 0.600 F -0.380 0.293 19.7 V 0.70 0.24 i 691 0.49 Yes Yes
Cadmus O c 1995-09-03.47809 1.000E-05 02:36:09.290 1.500E-01 0.600 F -1.248 -0.134 -03° 27' 09.00" 1.000E-01 0.600 F -0.380 0.164 19.6 V 0.70 0.14 i 691 0.35 Yes Yes
1995SA O c 1995-09-17.27105 1.000E-05 23:27:16.560 1.500E-01 0.600 F -0.194 0.442 -03° 42' 21.60" 1.000E-01 0.600 F 0.209 -0.066 20.3 V 0.70 0.14 i 691 0.76 Yes Yes
1995SA O c 1995-09-17.29206 1.000E-05 23:27:15.030 1.500E-01 0.600 F -0.194 0.070 -03° 42' 40.50" 1.000E-01 0.600 F 0.209 0.344 20.3 V 0.70 0.13 i 691 0.59 Yes Yes
1995SA O c 1995-09-17.31289 1.000E-05 23:27:13.550 1.500E-01 0.600 F -0.194 0.251 -03° 43' 00.00" 1.000E-01 0.600 F 0.209 -0.024 20.3 V 0.70 0.13 i 691 0.43 Yes Yes
1995OO O c 1995-09-17.39282 1.000E-05 23:31:16.960 1.500E-01 0.794 F -0.457 0.095 -00° 03' 54.30" 1.000E-01 0.794 F -0.562 -0.234 i 691 0.32 Yes No
1995OO O c 1995-09-17.39818 1.000E-05 23:31:16.460 1.500E-01 0.794 F -0.457 0.063 -00° 03' 55.80" 1.000E-01 0.794 F -0.562 -0.052 i 691 0.10 Yes No
1995OO O C 1995-09-17.40354 1.000E-05 23:31:15.950 1.500E-01 0.794 F -0.319 -0.261 -00° 03' 57.40" 1.000E-01 0.794 F -0.458 -0.074 21.6 V 0.70 0.98 b 691 0.34 Yes Yes
1995OO O c 1995-09-17.41316 1.000E-05 23:31:15.080 1.500E-01 0.794 F -0.457 0.217 -00° 04' 00.30" 1.000E-01 0.794 F -0.562 0.149 i 691 0.33 Yes No
1995OO O c 1995-09-17.41981 1.000E-05 23:31:14.450 1.500E-01 0.794 F -0.457 0.016 -00° 04' 03.30" 1.000E-01 0.794 F -0.562 -0.764 20.9 V 0.70 0.28 i 691 0.96 Yes Yes
1995OO O c 1995-09-17.42385 1.000E-05 23:31:14.060 1.500E-01 0.794 F -0.457 -0.218 -00° 04' 05.10" 1.000E-01 0.794 F -0.562 -1.297 20.7 V 0.70 0.08 i 691 1.66 Yes Yes
1995OO O c 1995-09-17.42781 1.000E-05 23:31:13.730 1.500E-01 0.794 F -0.457 0.336 -00° 04' 05.00" 1.000E-01 0.794 F -0.562 0.046 21.0 V 0.70 0.38 i 691 0.43 Yes Yes
1995SB O c 1995-09-18.25582 1.000E-05 23:22:23.840 1.500E-01 0.600 F -0.113 -0.082 -01° 57' 16.40" 1.000E-01 0.600 F -0.161 0.078 21.0 V 0.70 0.25 i 691 0.20 Yes Yes
1995SB O c 1995-09-18.27712 1.000E-05 23:22:20.020 1.500E-01 0.600 F -0.113 -1.023 -01° 56' 43.50" 1.000E-01 0.600 F -0.161 0.418 21.0 V 0.70 0.24 i 691 1.91 Yes Yes
1995SB O c 1995-09-18.29776 1.000E-05 23:22:16.460 1.500E-01 0.600 F -0.113 0.210 -01° 56' 12.30" 1.000E-01 0.600 F -0.161 0.061 20.8 V 0.70 0.04 i 691 0.38 Yes Yes
1995SA O c 1995-09-18.39478 1.000E-05 23:25:58.830 1.500E-01 0.600 F -0.200 0.013 -03° 59' 26.10" 1.000E-01 0.600 F 0.232 0.270 20.7 V 0.70 0.46 i 691 0.45 Yes Yes
1995SA O c 1995-09-18.40251 1.000E-05 23:25:58.320 1.500E-01 0.600 F -0.200 0.496 -03° 59' 32.30" 1.000E-01 0.600 F 0.232 1.055 20.2 V 0.70 -0.04 i 691 1.95 Yes Yes
1995SA O c 1995-09-18.40999 1.000E-05 23:25:57.770 1.500E-01 0.600 F -0.200 0.109 -03° 59' 39.80" 1.000E-01 0.600 F 0.232 0.313 20.8 V 0.70 0.56 i 691 0.55 Yes Yes
1995SB O c 1995-09-19.33682 1.000E-05 23:19:24.380 1.500E-01 0.600 F -0.113 -0.021 -01° 29' 54.10" 1.000E-01 0.600 F -0.161 0.364 21.2 V 0.70 0.36 i 691 0.63 Yes Yes
1995SB O c 1995-09-19.34224 1.000E-05 23:19:23.470 1.500E-01 0.600 F -0.113 0.376 -01° 29' 46.10" 1.000E-01 0.600 F -0.161 0.185 21.2 V 0.70 0.35 i 691 0.73 Yes Yes
1995SB O c 1995-09-19.34761 1.000E-05 23:19:22.530 1.500E-01 0.600 F -0.113 0.184 -01° 29' 38.10" 1.000E-01 0.600 F -0.161 0.081 21.2 V 0.70 0.35 i 691 0.35 Yes Yes
1999BY9 O C 1995-09-19.42390 1.000E-05 01:18:32.910 1.500E-01 0.600 F -0.381 -0.509 +09° 48' 24.00" 1.000E-01 0.600 F -0.292 0.289 21.2 V 0.70 -0.21 i 691 0.98 Yes Yes
1999BY9 O C 1995-09-19.45295 1.000E-05 01:18:31.230 1.500E-01 0.600 F -0.381 -0.101 +09° 48' 14.00" 1.000E-01 0.600 F -0.292 -0.122 i 691 0.26 Yes No
1999BY9 O C 1995-09-19.48177 1.000E-05 01:18:29.550 1.500E-01 0.600 F -0.381 0.040 +09° 48' 05.00" 1.000E-01 0.600 F -0.292 0.426 i 691 0.71 Yes No
2004SB1 O C 1995-09-20.19558 1.000E-05 22:46:57.980 1.500E-01 0.600 F -0.419 1.369 -09° 12' 08.20" 1.000E-01 0.600 F -0.469 8.086 i 691 13.16 No No
2004SB1 O C 1995-09-20.21736 1.000E-05 22:46:51.660 1.500E-01 0.600 F -0.419 -0.499 -09° 12' 18.10" 1.000E-01 0.600 F -0.469 0.748 19.3 V 0.70 0.12 i 691 1.51 Yes Yes
2004SB1 O C 1995-09-20.23838 1.000E-05 22:46:45.690 1.500E-01 0.600 F -0.419 -0.228 -09° 12' 20.60" 1.000E-01 0.600 F -0.469 0.643 19.3 V 0.70 0.12 i 691 1.15 Yes Yes
1995SB O c 1995-09-21.32215 1.000E-05 23:14:06.110 1.500E-01 0.600 F -0.390 0.414 -00° 40' 44.00" 1.000E-01 0.600 F -0.228 0.206 21.0 V 0.70 0.01 i 691 0.81 Yes Yes
1995SB O c 1995-09-21.32778 1.000E-05 23:14:05.120 1.500E-01 0.600 F -0.390 -0.419 -00° 40' 35.70" 1.000E-01 0.600 F -0.228 0.265 21.1 V 0.70 0.10 i 691 0.86 Yes Yes
1995SA O c 1995-09-21.35615 1.000E-05 23:22:40.880 1.500E-01 0.600 F -0.358 0.335 -04° 43' 08.30" 1.000E-01 0.600 F 0.366 0.089 20.1 V 0.70 -0.30 i 691 0.59 Yes Yes
1995SA O c 1995-09-21.36165 1.000E-05 23:22:40.490 1.500E-01 0.600 F -0.358 0.032 -04° 43' 13.00" 1.000E-01 0.600 F 0.366 0.139 20.4 V 0.70 -0.01 i 691 0.24 Yes Yes
1995SC1 O c 1995-09-23.18367 1.000E-05 23:28:45.070 1.500E-01 0.735 F -0.455 -0.087 -02° 37' 31.80" 1.000E-01 0.735 F 0.327 0.407 19.2 V 0.70 0.01 i 691 0.61 Yes Yes
1995SD1 O c 1995-09-23.19006 1.000E-05 23:37:58.680 1.500E-01 0.600 F -0.406 -0.342 -02° 38' 37.70" 1.000E-01 0.600 F -0.067 0.671 17.8 V 0.70 -0.20 i 691 1.31 Yes Yes
1995SC1 O c 1995-09-23.20436 1.000E-05 23:28:47.510 1.500E-01 0.735 F -0.455 0.182 -02° 35' 55.50" 1.000E-01 0.735 F 0.327 0.489 19.9 V 0.70 0.71 i 691 0.76 Yes Yes
1995SD1 O c 1995-09-23.21077 1.000E-05 23:38:02.770 1.500E-01 0.600 F -0.406 -0.196 -02° 39' 21.20" 1.000E-01 0.600 F -0.067 0.619 17.8 V 0.70 -0.20 i 691 1.13 Yes Yes
1995SC1 O c 1995-09-23.22507 1.000E-05 23:28:49.880 1.500E-01 0.735 F -0.455 -0.164 -02° 34' 20.10" 1.000E-01 0.735 F 0.327 -0.392 19.6 V 0.70 0.41 i 691 0.62 Yes Yes
1995SD1 O c 1995-09-23.23150 1.000E-05 23:38:06.840 1.500E-01 0.600 F -0.406 -0.132 -02° 40' 04.70" 1.000E-01 0.600 F -0.067 0.589 17.8 V 0.70 -0.20 i 691 1.04 Yes Yes
1995SC1 O C 1995-09-23.36338 1.000E-05 23:29:05.700 1.500E-01 0.735 F -0.119 0.492 -02° 23' 37.20" 1.000E-01 0.735 F 0.182 0.383 20.3 V 0.70 1.10 b 691 0.90 Yes Yes
1995SC1 O C 1995-09-23.36885 1.000E-05 23:29:06.320 1.500E-01 0.735 F -0.119 0.279 -02° 23' 11.90" 1.000E-01 0.735 F 0.182 0.312 20.1 V 0.70 0.90 b 691 0.60 Yes Yes
1995SC1 O C 1995-09-23.37422 1.000E-05 23:29:06.830 1.500E-01 0.735 F -0.455 -1.105 -02° 22' 48.30" 1.000E-01 0.735 F 0.327 -1.137 i 691 2.29 Yes No
1995SD1 O c 1995-09-24.17035 1.000E-05 23:41:25.670 1.500E-01 0.600 F -0.770 0.192 -03° 12' 51.60" 1.000E-01 0.600 F -0.011 0.232 17.8 V 0.70 -0.21 i 691 0.52 Yes Yes
1995SD1 O c 1995-09-24.17468 1.000E-05 23:41:26.540 1.500E-01 0.600 F -0.770 0.197 -03° 13' 00.60" 1.000E-01 0.600 F -0.011 0.348 17.8 V 0.70 -0.21 i 691 0.69 Yes Yes
1995SD1 O c 1995-09-24.17919 1.000E-05 23:41:27.450 1.500E-01 0.600 F -0.770 0.278 -03° 13' 10.30" 1.000E-01 0.600 F -0.011 0.142 17.8 V 0.70 -0.21 i 691 0.54 Yes Yes
1995SC1 O c 1995-09-24.18498 1.000E-05 23:30:59.920 1.500E-01 0.600 F -0.654 -0.041 -01° 21' 07.90" 1.000E-01 0.600 F 0.028 -0.008 19.6 V 0.70 0.36 i 691 0.07 Yes Yes
1995SC1 O c 1995-09-24.19425 1.000E-05 23:31:00.980 1.500E-01 0.600 F -0.654 0.045 -01° 20' 26.10" 1.000E-01 0.600 F 0.028 0.162 19.6 V 0.70 0.36 i 691 0.30 Yes Yes
1995QN3 O c 1995-09-24.21624 1.000E-05 22:29:59.200 1.500E-01 0.600 F -0.020 0.044 -00° 51' 58.40" 1.000E-01 0.600 F 0.031 0.067 19.7 V 0.70 0.09 i 691 0.13 Yes Yes
1999BY9 O C 1995-09-24.44486 1.000E-05 01:13:30.040 1.500E-01 0.600 F -0.044 -0.164 +09° 18' 49.60" 1.000E-01 0.600 F -0.525 0.555 21.7 V 0.70 0.44 i 691 0.97 Yes Yes
1999BY9 O C 1995-09-24.46599 1.000E-05 01:13:28.640 1.500E-01 0.600 F -0.044 -0.401 +09° 18' 41.30" 1.000E-01 0.600 F -0.525 0.314 22.2 V 0.70 0.94 i 691 0.85 Yes Yes
1999BY9 O C 1995-09-24.48710 1.000E-05 01:13:27.270 1.500E-01 0.600 F -0.044 -0.268 +09° 18' 33.50" 1.000E-01 0.600 F -0.525 0.581 21.9 V 0.70 0.64 i 691 1.07 Yes Yes
1995SB O C 1995-09-26.23403 1.000E-05 23:02:05.670 1.500E-01 0.600 F 0.090 1.282 +01° 13' 55.70" 1.000E-01 0.600 F 0.701 -0.877 21.4 0.70 -0.72 i 691 2.76 Yes Yes
1995SB O C 1995-09-26.24434 1.000E-05 23:02:04.000 1.500E-01 0.600 F 0.090 -1.358 +01° 14' 10.70" 1.000E-01 0.600 F 0.701 0.361 21.1 0.70 -1.03 i 691 2.47 Yes Yes
1995SA O C 1995-09-26.25512 1.000E-05 23:17:36.170 1.500E-01 0.600 F -0.505 0.086 -05° 50' 44.00" 1.000E-01 0.600 F 0.544 -0.184 21.4 0.70 -0.04 i 691 0.34 Yes Yes
1995SC1 O C 1995-09-26.25764 1.000E-05 23:35:25.580 1.500E-01 0.600 F -0.336 0.484 +01° 08' 13.50" 1.000E-01 0.600 F 0.022 0.806 20.1 0.70 -0.06 i 691 1.70 Yes Yes
1995SC1 O C 1995-09-26.26223 1.000E-05 23:35:26.020 1.500E-01 0.600 F -0.336 -0.037 +01° 08' 30.60" 1.000E-01 0.600 F 0.022 -1.142 20.2 0.70 0.04 i 691 2.06 Yes Yes
1995SD1 O C 1995-09-26.26444 1.000E-05 23:48:52.950 1.500E-01 0.600 F -0.933 0.151 -04° 25' 57.80" 1.000E-01 0.600 F -0.376 0.156 18.3 0.70 -0.56 i 691 0.37 Yes Yes
1995SD1 O C 1995-09-26.26654 1.000E-05 23:48:53.390 1.500E-01 0.600 F -0.933 0.415 -04° 26' 02.60" 1.000E-01 0.600 F -0.376 -0.256 18.3 0.70 -0.56 i 691 0.84 Yes Yes
1995OO O C 1995-09-27.26419 1.000E-05 23:17:04.050 1.500E-01 0.600 F -0.039 -0.197 -00° 53' 35.60" 1.000E-01 0.600 F -0.088 -0.208 i 691 0.48 Yes No
1995SA4 O c 1995-09-27.45990 1.000E-05 02:10:49.740 1.500E-01 0.600 F -0.036 -0.026 +13° 27' 29.20" 1.000E-01 0.600 F -0.179 0.162 19.7 V 0.70 0.53 i 691 0.31 Yes Yes
1995SA4 O c 1995-09-27.47624 1.000E-05 02:10:51.700 1.500E-01 0.600 F -0.036 0.926 +13° 27' 11.00" 1.000E-01 0.600 F -0.179 -0.026 19.8 V 0.70 0.63 i 691 1.74 Yes Yes
1995SA4 O c 1995-09-27.49269 1.000E-05 02:10:53.540 1.500E-01 0.600 F -0.036 -0.361 +13° 26' 52.90" 1.000E-01 0.600 F -0.179 0.120 19.8 V 0.70 0.62 i 691 0.73 Yes Yes
1995SA4 O C 1995-09-29.43530 1.000E-05 02:14:58.260 1.500E-01 0.600 F 0.146 0.091 +12° 54' 05.30" 1.000E-01 0.600 F 0.011 0.025 19.8 0.70 -0.30 i 691 0.16 Yes Yes
1995SA4 O C 1995-09-29.44156 1.000E-05 02:14:58.810 1.500E-01 0.600 F 0.146 -0.113 +12° 53' 59.20" 1.000E-01 0.600 F 0.011 0.186 19.6 0.70 -0.50 i 691 0.38 Yes Yes
1995SB O C 1995-09-30.24933 1.000E-05 22:53:39.590 1.500E-01 0.600 F 0.194 -0.328 +02° 39' 27.70" 1.000E-01 0.600 F -0.167 -0.153 22.1 0.70 -0.27 i 691 0.63 Yes Yes
1995SB O C 1995-09-30.26007 1.000E-05 22:53:38.290 1.500E-01 0.600 F 0.194 0.203 +02° 39' 40.60" 1.000E-01 0.600 F -0.167 -0.361 22.2 0.70 -0.17 i 691 0.80 Yes Yes
1995SA4 O C 1995-09-30.28601 1.000E-05 02:16:33.650 1.500E-01 0.600 F 0.146 -0.002 +12° 40' 31.00" 1.000E-01 0.600 F 0.011 -0.218 19.6 0.70 -0.55 i 691 0.38 Yes Yes
1995SA4 O C 1995-09-30.29314 1.000E-05 02:16:34.210 1.500E-01 0.600 F 0.146 -0.496 +12° 40' 24.90" 1.000E-01 0.600 F 0.011 0.073 19.5 0.70 -0.65 i 691 0.88 Yes Yes
1995SA4 O C 1995-09-30.49185 1.000E-05 02:16:50.150 1.500E-01 0.600 F 0.146 -0.054 +12° 37' 18.20" 1.000E-01 0.600 F 0.011 -0.055 19.5 0.70 -0.66 i 691 0.13 Yes Yes
1995SA4 O C 1995-09-30.49815 1.000E-05 02:16:50.670 1.500E-01 0.600 F 0.146 -0.132 +12° 37' 12.10" 1.000E-01 0.600 F 0.011 0.014 19.5 0.70 -0.66 i 691 0.23 Yes Yes
1995SA O C 1995-10-01.26118 1.000E-05 23:12:59.270 1.500E-01 0.600 F -0.095 -0.949 -06° 53' 02.80" 1.000E-01 0.600 F -0.465 -1.176 21.5 0.70 -0.17 i 691 2.53 Yes Yes
1995SA O C 1995-10-01.26644 1.000E-05 23:12:58.980 1.500E-01 0.600 F -0.095 -1.078 -06° 53' 05.90" 1.000E-01 0.600 F -0.465 -0.580 21.3 0.70 -0.37 i 691 2.06 Yes Yes
1995SC1 O C 1995-10-01.28238 1.000E-05 23:45:13.430 1.500E-01 0.600 F 0.135 -0.269 +06° 20' 51.80" 1.000E-01 0.600 F 0.000 0.142 19.6 0.70 -0.90 i 691 0.66 Yes Yes
1995SC1 O C 1995-10-01.28645 1.000E-05 23:45:13.820 1.500E-01 0.600 F 0.135 0.081 +06° 21' 05.20" 1.000E-01 0.600 F 0.000 0.012 19.3 0.70 -1.20 i 691 0.18 Yes Yes
1995SD1 O C 1995-10-01.29062 1.000E-05 00:07:14.710 1.500E-01 0.600 F -0.255 0.267 -07° 16' 18.60" 1.000E-01 0.600 F -0.012 -0.128 18.7 0.70 -0.30 i 691 0.50 Yes Yes
1995SD1 O C 1995-10-01.29546 1.000E-05 00:07:15.720 1.500E-01 0.600 F -0.255 0.467 -07° 16' 28.10" 1.000E-01 0.600 F -0.012 -0.167 18.7 0.70 -0.30 i 691 0.84 Yes Yes
1995SA4 O C 1995-10-02.43138 1.000E-05 02:19:48.390 1.500E-01 0.600 F -0.061 0.067 +12° 08' 28.90" 1.000E-01 0.600 F 0.167 -0.251 19.2 0.70 -1.07 i 691 0.47 Yes Yes
1995SA4 O C 1995-10-02.43781 1.000E-05 02:19:48.770 1.500E-01 0.600 F -0.061 -0.130 +12° 08' 23.40" 1.000E-01 0.600 F 0.167 -0.089 19.3 0.70 -0.97 i 691 0.27 Yes Yes
1995SA4 O C 1995-10-15.50932 1.000E-05 02:28:20.620 1.500E-01 0.600 F -0.354 0.008 +09° 45' 05.90" 1.000E-01 0.600 F 0.455 -0.265 20.4 V 0.70 0.34 b 691 0.47 Yes Yes
1995SA4 O C 1995-10-15.51480 1.000E-05 02:28:20.650 1.500E-01 0.600 F -0.354 0.322 +09° 45' 03.00" 1.000E-01 0.600 F 0.455 -0.318 20.7 V 0.70 0.64 b 691 0.80 Yes Yes
1995SA4 O C 1995-10-15.52126 1.000E-05 02:28:20.630 1.500E-01 0.600 F -0.354 -0.172 +09° 44' 59.60" 1.000E-01 0.600 F 0.455 -0.358 20.6 V 0.70 0.54 b 691 0.70 Yes Yes
1995SA O C 1995-10-16.15679 1.000E-05 23:03:17.660 1.500E-01 0.600 F -0.413 0.053 -09° 14' 25.70" 1.000E-01 0.600 F -0.272 -0.384 22.2 V 0.70 0.75 i 691 0.65 Yes Yes
1995SA O C 1995-10-16.16238 1.000E-05 23:03:17.560 1.500E-01 0.600 F -0.413 0.900 -09° 14' 27.90" 1.000E-01 0.600 F -0.272 -0.131 21.8 V 0.70 0.35 i 691 1.53 Yes Yes
1995SA O C 1995-10-16.16872 1.000E-05 23:03:17.290 1.500E-01 0.600 F -0.413 -0.457 -09° 14' 30.10" 1.000E-01 0.600 F -0.272 0.450 22.0 V 0.70 0.55 i 691 1.07 Yes Yes
1995SC1 O C 1995-10-16.18396 1.000E-05 00:08:41.290 1.500E-01 0.600 F -0.294 0.319 +15° 59' 59.50" 1.000E-01 0.600 F 0.287 0.446 20.2 V 0.70 -0.58 i 691 1.12 Yes Yes
1995SC1 O C 1995-10-16.18983 1.000E-05 00:08:41.680 1.500E-01 0.600 F -0.294 0.039 +16° 00' 08.00" 1.000E-01 0.600 F 0.287 -0.076 20.0 V 0.70 -0.78 i 691 0.17 Yes Yes
1995SC1 O C 1995-10-16.19583 1.000E-05 00:08:42.070 1.500E-01 0.600 F -0.294 -0.355 +16° 00' 16.90" 1.000E-01 0.600 F 0.287 -0.383 20.4 V 0.70 -0.38 i 691 1.06 Yes Yes
1998RO4 O C 1995-10-17.45668 1.000E-05 03:35:03.810 1.500E-01 0.600 F 0.283 -0.658 +14° 20' 39.00" 1.000E-01 0.600 F -0.225 0.321 19.7 V 0.70 -0.13 b 691 1.22 Yes Yes
1998RO4 O C 1995-10-17.48107 1.000E-05 03:35:02.150 1.500E-01 0.600 F 0.283 -0.630 +14° 20' 25.60" 1.000E-01 0.600 F -0.225 -0.003 19.7 V 0.70 -0.13 b 691 1.05 Yes Yes
1998RO4 O C 1995-10-17.50513 1.000E-05 03:35:00.510 1.500E-01 0.600 F 0.283 -0.729 +14° 20' 12.80" 1.000E-01 0.600 F -0.225 0.138 19.9 V 0.70 0.07 b 691 1.24 Yes Yes
1995UB O c 1995-10-18.13640 1.000E-05 00:24:50.020 1.500E-01 0.735 F -0.309 0.107 +04° 50' 57.20" 1.000E-01 0.735 F -0.081 3.268 17.3 V 0.70 -0.50 i 691 3.88 No Yes
1995UB O c 1995-10-18.18941 1.000E-05 00:29:45.320 1.500E-01 0.735 F -0.168 -3.166 +04° 15' 09.10" 1.000E-01 0.735 F -0.038 1.845 i 691 3.91 No No
1995UB O c 1995-10-18.23156 1.000E-05 00:33:24.080 1.500E-01 0.735 F -0.143 -0.088 +03° 48' 14.20" 1.000E-01 0.735 F 0.093 -0.588 i 691 0.93 Yes No
1995SD1 O c 1995-10-18.26058 1.000E-05 01:06:25.030 1.500E-01 0.600 F -0.077 0.280 -14° 04' 01.50" 1.000E-01 0.600 F -0.179 0.086 19.1 V 0.70 0.21 i 691 0.50 Yes Yes
1995SD1 O c 1995-10-18.26620 1.000E-05 01:06:26.000 1.500E-01 0.600 F -0.077 0.277 -14° 04' 06.20" 1.000E-01 0.600 F -0.179 0.067 19.0 V 0.70 0.11 i 691 0.49 Yes Yes
1995SD1 O c 1995-10-18.27181 1.000E-05 01:06:26.970 1.500E-01 0.600 F -0.077 0.304 -14° 04' 10.90" 1.000E-01 0.600 F -0.179 0.029 19.0 V 0.70 0.11 i 691 0.52 Yes Yes
1995UB O c 1995-10-18.28034 1.000E-05 00:37:21.430 1.500E-01 0.735 F -0.132 -0.601 +03° 18' 47.40" 1.000E-01 0.735 F 0.148 0.113 17.4 V 0.70 -0.53 i 691 0.98 Yes Yes
1995SA4 O C 1995-10-18.31685 1.000E-05 02:28:38.360 1.500E-01 0.735 F -0.530 0.213 +09° 23' 50.80" 1.000E-01 0.735 F 0.475 0.066 20.6 V 0.70 0.44 i 691 0.31 Yes Yes
1995SA4 O C 1995-10-18.32245 1.000E-05 02:28:38.270 1.500E-01 0.735 F -0.530 -0.119 +09° 23' 48.30" 1.000E-01 0.735 F 0.475 -0.085 20.3 V 0.70 0.14 i 691 0.21 Yes Yes
1995SA4 O C 1995-10-18.32824 1.000E-05 02:28:38.220 1.500E-01 0.735 F -0.530 0.181 +09° 23' 46.10" 1.000E-01 0.735 F 0.475 0.151 20.3 V 0.70 0.14 i 691 0.33 Yes Yes
1995SA4 O C 1995-10-18.33412 1.000E-05 02:28:38.150 1.500E-01 0.735 F -0.530 0.205 +09° 23' 43.50" 1.000E-01 0.735 F 0.475 0.031 20.7 V 0.70 0.54 i 691 0.29 Yes Yes
1995SA4 O C 1995-10-18.34017 1.000E-05 02:28:38.070 1.500E-01 0.735 F -0.530 0.115 +09° 23' 41.00" 1.000E-01 0.735 F 0.475 0.090 20.6 V 0.70 0.44 i 691 0.21 Yes Yes
1995SA4 O C 1995-10-18.34594 1.000E-05 02:28:37.990 1.500E-01 0.735 F -0.530 -0.026 +09° 23' 38.40" 1.000E-01 0.735 F 0.475 -0.063 20.5 V 0.70 0.34 i 691 0.10 Yes Yes
1995UB O c 1995-10-18.35552 1.000E-05 00:43:00.470 1.500E-01 0.735 F -0.126 0.522 +02° 36' 38.50" 1.000E-01 0.735 F 0.040 0.646 i 691 1.28 Yes No
1995UB O c 1995-10-18.41808 1.000E-05 00:47:22.800 1.500E-01 0.735 F -0.255 0.711 +02° 04' 21.30" 1.000E-01 0.735 F 0.225 0.182 17.8 V 0.70 -0.27 i 691 1.23 Yes Yes
1995UB O c 1995-10-19.21286 1.000E-05 01:25:36.920 1.500E-01 0.600 F -0.487 -0.391 -02° 18' 30.30" 1.000E-01 0.600 F -0.424 -0.216 18.3 V 0.70 -0.64 i 691 0.89 Yes Yes
1995UB O c 1995-10-19.39745 1.000E-05 01:30:21.740 1.500E-01 0.600 F -0.673 -0.582 -02° 55' 35.10" 1.000E-01 0.600 F -0.564 0.040 18.9 V 0.70 -0.23 i 691 1.11 Yes Yes
2002UN3 O C 1995-10-20.21520 1.000E-05 00:43:58.260 1.500E-01 0.600 F 0.057 -0.222 +01° 32' 06.50" 1.000E-01 0.600 F -0.231 0.549 20.8 V 0.70 0.23 b 691 0.99 Yes Yes
2002UN3 O C 1995-10-20.23591 1.000E-05 00:43:56.360 1.500E-01 0.600 F 0.057 -0.122 +01° 32' 04.40" 1.000E-01 0.600 F -0.231 0.760 20.6 V 0.70 0.03 b 691 1.29 Yes Yes
2002UN3 O C 1995-10-20.25668 1.000E-05 00:43:54.470 1.500E-01 0.600 F 0.057 0.227 +01° 32' 02.30" 1.000E-01 0.600 F -0.231 0.978 20.6 V 0.70 0.03 b 691 1.68 Yes Yes
1995UB O c 1995-10-20.29197 1.000E-05 01:48:07.740 1.500E-01 0.600 F -1.307 1.262 -04° 56' 13.60" 1.000E-01 0.600 F 0.398 -0.410 20.2 V 0.70 0.29 i 691 2.44 Yes Yes
1995UB O c 1995-10-20.29622 1.000E-05 01:48:10.740 1.500E-01 0.600 F -1.307 0.568 -04° 56' 37.90" 1.000E-01 0.600 F 0.398 0.149 19.9 V 0.70 -0.01 i 691 1.05 Yes Yes
1995UC2 O c 1995-10-21.39096 1.000E-05 02:12:50.840 1.500E-01 0.600 F -0.152 0.205 +06° 58' 28.50" 1.000E-01 0.600 F 0.193 0.049 20.8 V 0.70 -0.12 i 691 0.43 Yes Yes
1995UC2 O c 1995-10-21.41198 1.000E-05 02:12:46.630 1.500E-01 0.600 F -0.152 0.105 +06° 59' 11.70" 1.000E-01 0.600 F 0.193 -0.356 21.0 V 0.70 0.08 i 691 0.74 Yes Yes
1995UC2 O c 1995-10-21.43498 1.000E-05 02:12:42.030 1.500E-01 0.600 F -0.152 -0.087 +07° 00' 00.10" 1.000E-01 0.600 F 0.193 0.379 20.8 V 0.70 -0.12 i 691 0.76 Yes Yes
2002PZ39 O C 1995-10-23.17209 1.000E-05 00:17:17.090 1.500E-01 0.600 F -0.332 0.451 +04° 30' 31.90" 1.000E-01 0.600 F 0.131 0.023 21.5 V 0.70 0.42 i 691 0.75 Yes Yes
2002PZ39 O C 1995-10-23.19303 1.000E-05 00:17:15.470 1.500E-01 0.600 F -0.332 0.805 +04° 30' 21.00" 1.000E-01 0.600 F 0.131 0.004 21.2 V 0.70 0.11 i 691 1.34 Yes Yes
2002PZ39 O C 1995-10-23.22247 1.000E-05 00:17:13.140 1.500E-01 0.600 F -0.332 0.540 +04° 30' 05.40" 1.000E-01 0.600 F 0.131 -0.294 22.0 V 0.70 0.91 i 691 1.03 Yes Yes
1995UC2 O c 1995-10-23.34221 1.000E-05 02:06:35.100 1.500E-01 0.600 F -0.129 0.009 +08° 05' 10.60" 1.000E-01 0.600 F 0.137 -0.119 20.7 V 0.70 -0.15 i 691 0.21 Yes Yes
1995UC2 O c 1995-10-23.34771 1.000E-05 02:06:34.000 1.500E-01 0.600 F -0.129 -0.226 +08° 05' 22.50" 1.000E-01 0.600 F 0.137 0.686 20.3 V 0.70 -0.55 i 691 1.31 Yes Yes
1995UC2 O c 1995-10-23.36135 1.000E-05 02:06:31.320 1.500E-01 0.600 F -0.129 -0.122 +08° 05' 49.50" 1.000E-01 0.600 F 0.137 0.187 21.4 V 0.70 0.55 i 691 0.43 Yes Yes
1995UC2 O c 1995-10-24.22245 1.000E-05 02:03:48.690 1.500E-01 0.600 F 0.037 -0.118 +08° 34' 35.40" 1.000E-01 0.600 F 0.221 -0.198 20.9 V 0.70 0.08 i 691 0.43 Yes Yes
1995UC2 O c 1995-10-24.22809 1.000E-05 02:03:47.610 1.500E-01 0.600 F 0.037 0.127 +08° 34' 46.50" 1.000E-01 0.600 F 0.221 -0.360 21.0 V 0.70 0.18 i 691 0.70 Yes Yes
1995UC2 O c 1995-10-24.23370 1.000E-05 02:03:46.510 1.500E-01 0.600 F 0.037 -0.004 +08° 34' 57.50" 1.000E-01 0.600 F 0.221 -0.558 20.9 V 0.70 0.08 i 691 1.00 Yes Yes
1995UB O C 1995-10-24.32906 1.000E-05 02:13:45.340 1.500E-01 0.600 F -0.194 -0.085 -07° 44' 53.80" 1.000E-01 0.600 F -0.151 -0.413 22.2 V 0.70 0.34 i 691 0.73 Yes Yes
1995UB O C 1995-10-24.33999 1.000E-05 02:13:46.480 1.500E-01 0.600 F -0.194 -0.498 -07° 45' 03.90" 1.000E-01 0.600 F -0.151 0.255 21.9 V 0.70 0.03 i 691 0.98 Yes Yes
1995UB O C 1995-10-24.34514 1.000E-05 02:13:47.060 1.500E-01 0.600 F -0.194 -0.075 -07° 45' 09.20" 1.000E-01 0.600 F -0.151 -0.016 22.0 V 0.70 0.13 i 691 0.13 Yes Yes
Oljato O c 1995-10-24.49772 1.000E-05 03:53:49.010 1.500E-01 0.600 F -0.380 -0.145 +17° 38' 04.30" 1.000E-01 0.600 F -0.273 -0.085 17.6 V 0.70 0.18 i 691 0.28 Yes Yes
Oljato O c 1995-10-24.50333 1.000E-05 03:53:48.710 1.500E-01 0.600 F -0.380 0.111 +17° 38' 03.20" 1.000E-01 0.600 F -0.273 -0.077 i 691 0.23 Yes No
Oljato O c 1995-10-24.51543 1.000E-05 03:53:48.020 1.500E-01 0.600 F -0.380 0.031 +17° 38' 00.80" 1.000E-01 0.600 F -0.273 -0.079 i 691 0.14 Yes No
1995UB O C 1995-10-25.27067 1.000E-05 02:16:08.000 1.500E-01 0.600 F -0.194 -0.896 -07° 58' 24.00" 1.000E-01 0.600 F -0.151 0.026 22.2 V 0.70 0.05 i 691 1.57 Yes Yes
1995UB O C 1995-10-25.27597 1.000E-05 02:16:08.470 1.500E-01 0.600 F -0.194 -0.006 -07° 58' 27.60" 1.000E-01 0.600 F -0.151 0.459 22.2 V 0.70 0.04 i 691 0.80 Yes Yes
1995UB O C 1995-10-25.30569 1.000E-05 02:16:10.730 1.500E-01 0.600 F -0.194 0.024 -07° 58' 50.20" 1.000E-01 0.600 F -0.151 -0.011 22.6 V 0.70 0.44 i 691 0.05 Yes Yes
1995UB O C 1995-10-25.31148 1.000E-05 02:16:11.220 1.500E-01 0.600 F -0.194 0.845 -07° 58' 54.70" 1.000E-01 0.600 F -0.151 -0.297 22.0 V 0.70 -0.17 i 691 1.57 Yes Yes
1992TB O c 1995-10-26.08387 1.000E-05 21:55:22.850 1.500E-01 0.600 F 0.255 -0.473 -05° 03' 31.50" 1.000E-01 0.600 F 0.258 0.460 20.6 V 0.70 0.41 i 691 1.10 Yes Yes
1992TB O c 1995-10-26.09102 1.000E-05 21:55:23.090 1.500E-01 0.600 F 0.255 0.082 -05° 03' 38.10" 1.000E-01 0.600 F 0.258 0.123 i 691 0.25 Yes No
1992TB O c 1995-10-26.09871 1.000E-05 21:55:23.280 1.500E-01 0.600 F 0.255 -0.338 -05° 03' 44.80" 1.000E-01 0.600 F 0.258 0.158 i 691 0.62 Yes No
2002UN3 O C 1995-10-26.12486 1.000E-05 00:35:35.160 1.500E-01 0.600 F -0.079 0.022 +01° 23' 49.10" 1.000E-01 0.600 F -0.026 -0.304 20.7 V 0.70 -0.02 b 691 0.51 Yes Yes
2002UN3 O C 1995-10-26.14581 1.000E-05 00:35:33.390 1.500E-01 0.600 F -0.079 -0.252 +01° 23' 48.00" 1.000E-01 0.600 F -0.026 -0.299 20.7 V 0.70 -0.03 b 691 0.66 Yes Yes
2002UN3 O C 1995-10-26.16661 1.000E-05 00:35:31.680 1.500E-01 0.600 F -0.079 0.253 +01° 23' 46.80" 1.000E-01 0.600 F -0.026 -0.404 20.9 V 0.70 0.17 b 691 0.80 Yes Yes
1995UB O C 1995-10-26.35873 1.000E-05 02:18:08.430 1.500E-01 0.600 F -0.305 -0.230 -08° 09' 35.90" 1.000E-01 0.600 F 0.215 -0.050 22.7 V 0.70 0.25 i 691 0.42 Yes Yes
1995UB O C 1995-10-26.36373 1.000E-05 02:18:08.730 1.500E-01 0.600 F -0.305 0.113 -08° 09' 38.10" 1.000E-01 0.600 F 0.215 0.158 23.1 V 0.70 0.65 i 691 0.34 Yes Yes
1995UB O C 1995-10-26.36874 1.000E-05 02:18:09.030 1.500E-01 0.600 F -0.305 0.416 -08° 09' 40.60" 1.000E-01 0.600 F 0.215 0.051 22.6 V 0.70 0.15 i 691 0.74 Yes Yes
1995UO5 O c 1995-10-26.39075 1.000E-05 02:16:52.260 1.500E-01 0.600 F -0.210 -0.307 +06° 15' 07.70" 1.000E-01 0.600 F 0.404 -0.839 20.2 V 0.70 0.55 i 691 1.50 Yes Yes
1995UO5 O c 1995-10-26.41169 1.000E-05 02:16:49.440 1.500E-01 0.600 F -0.210 -0.591 +06° 15' 07.70" 1.000E-01 0.600 F 0.404 -0.881 20.1 V 0.70 0.45 i 691 1.78 Yes Yes
1995UO5 O c 1995-10-26.44412 1.000E-05 02:16:45.130 1.500E-01 0.600 F -0.210 -0.284 +06° 15' 07.80" 1.000E-01 0.600 F 0.404 -0.833 20.1 V 0.70 0.46 i 691 1.48 Yes Yes
2002PZ39 O C 1995-10-27.15182 1.000E-05 00:12:40.200 1.500E-01 0.600 F 0.290 -1.333 +03° 58' 14.30" 1.000E-01 0.600 F -0.032 -0.200 21.7 V 0.70 0.42 b 691 2.25 Yes Yes
2002PZ39 O C 1995-10-27.17273 1.000E-05 00:12:38.840 1.500E-01 0.600 F 0.290 -0.898 +03° 58' 05.00" 1.000E-01 0.600 F -0.032 -0.078 21.3 V 0.70 0.02 b 691 1.50 Yes Yes
2002PZ39 O C 1995-10-27.19361 1.000E-05 00:12:37.450 1.500E-01 0.600 F 0.290 -0.923 +03° 57' 55.80" 1.000E-01 0.600 F -0.032 0.132 21.6 V 0.70 0.32 b 691 1.55 Yes Yes
1995UC2 O C 1995-10-27.31131 1.000E-05 01:54:17.770 1.500E-01 0.600 F -0.504 -0.772 +10° 14' 06.20" 1.000E-01 0.600 F 0.536 0.239 i 691 1.88 Yes No
1995UC2 O C 1995-10-27.31788 1.000E-05 01:54:16.660 1.500E-01 0.600 F -0.504 0.885 +10° 14' 18.30" 1.000E-01 0.600 F 0.536 0.052 i 691 2.04 Yes No
1995UO5 O c 1995-10-27.41549 1.000E-05 02:14:36.760 1.500E-01 0.600 F -0.126 0.612 +06° 15' 14.00" 1.000E-01 0.600 F 0.398 -0.299 19.8 0.70 -0.62 i 691 1.14 Yes Yes
1995UO5 O c 1995-10-27.42184 1.000E-05 02:14:35.940 1.500E-01 0.600 F -0.126 1.138 +06° 15' 14.00" 1.000E-01 0.600 F 0.398 -0.328 20.0 0.70 -0.42 i 691 1.98 Yes Yes
1991WA O c 1995-11-15.47564 1.000E-05 06:13:41.530 1.500E-01 0.600 F -0.473 0.058 -01° 39' 31.80" 1.000E-01 0.600 F -1.100 0.681 15.9 V 0.70 0.07 i 691 1.15 Yes Yes
1991WA O c 1995-11-15.48264 1.000E-05 06:13:37.610 1.500E-01 0.600 F -0.473 -0.073 -01° 38' 40.80" 1.000E-01 0.600 F -1.100 0.731 16.0 V 0.70 0.17 i 691 1.24 Yes Yes
1991WA O c 1995-11-15.49071 1.000E-05 06:13:33.090 1.500E-01 0.600 F -0.473 -0.263 -01° 37' 42.00" 1.000E-01 0.600 F -1.100 0.792 16.2 V 0.70 0.37 i 691 1.41 Yes Yes
1992TB O c 1995-11-16.07687 1.000E-05 22:11:53.570 1.500E-01 0.600 F -0.180 -0.920 -08° 33' 41.90" 1.000E-01 0.600 F -0.291 -0.128 21.0 V 0.70 0.24 i 691 1.55 Yes Yes
1992TB O c 1995-11-16.10468 1.000E-05 22:11:55.270 1.500E-01 0.600 F -0.180 -0.010 -08° 33' 51.80" 1.000E-01 0.600 F -0.291 0.030 20.4 V 0.70 -0.37 i 691 0.05 Yes Yes
1992TB O c 1995-11-16.11671 1.000E-05 22:11:55.990 1.500E-01 0.600 F -0.180 0.146 -08° 33' 56.10" 1.000E-01 0.600 F -0.291 0.069 20.7 V 0.70 -0.07 i 691 0.27 Yes Yes
1995UO5 O c 1995-11-16.26481 1.000E-05 01:30:32.420 1.500E-01 0.600 F -0.043 -0.180 +06° 33' 10.30" 1.000E-01 0.600 F 0.624 -0.335 20.7 V 0.70 0.73 i 691 0.64 Yes Yes
1995UO5 O c 1995-11-16.27048 1.000E-05 01:30:31.720 1.500E-01 0.600 F -0.043 0.077 +06° 33' 10.90" 1.000E-01 0.600 F 0.624 -0.388 20.5 V 0.70 0.53 i 691 0.66 Yes Yes
1995SD1 O c 1995-11-17.25204 1.000E-05 02:14:50.050 1.500E-01 0.600 F 0.076 -0.333 -13° 19' 07.20" 1.000E-01 0.600 F -0.249 0.230 20.4 V 0.70 0.11 i 691 0.72 Yes Yes
1995SD1 O c 1995-11-17.25772 1.000E-05 02:14:50.590 1.500E-01 0.600 F 0.076 0.077 -13° 19' 02.80" 1.000E-01 0.600 F -0.249 0.438 20.5 V 0.70 0.21 i 691 0.77 Yes Yes
1995SD1 O c 1995-11-17.26338 1.000E-05 02:14:51.090 1.500E-01 0.600 F 0.076 -0.072 -13° 18' 58.70" 1.000E-01 0.600 F -0.249 0.355 20.6 V 0.70 0.31 i 691 0.63 Yes Yes
2002VT85 O C 1995-11-19.28096 1.000E-05 03:12:31.500 1.500E-01 0.600 F -0.003 -0.486 +23° 51' 37.90" 1.000E-01 0.600 F 0.186 0.626 i 691 1.35 Yes No
2002VT85 O C 1995-11-19.30391 1.000E-05 03:12:30.250 1.500E-01 0.600 F -0.003 0.298 +23° 51' 19.10" 1.000E-01 0.600 F 0.186 0.279 18.7 V 0.70 0.28 i 691 0.71 Yes Yes
2002VT85 O C 1995-11-19.32920 1.000E-05 03:12:28.800 1.500E-01 0.600 F -0.003 0.112 +23° 50' 58.70" 1.000E-01 0.600 F 0.186 0.323 i 691 0.58 Yes No
1995QN3 O C 1995-11-20.08861 1.000E-05 22:46:22.490 1.500E-01 0.600 F -0.504 -0.299 -06° 35' 27.10" 1.000E-01 0.600 F -0.252 -0.372 22.3 V 0.70 0.61 i 691 0.80 Yes Yes
1995QN3 O C 1995-11-20.09976 1.000E-05 22:46:22.990 1.500E-01 0.600 F -0.504 -0.698 -06° 35' 27.00" 1.000E-01 0.600 F -0.252 -0.583 22.1 V 0.70 0.41 i 691 1.52 Yes Yes
1991WA O C 1995-11-22.42025 1.000E-05 05:11:58.560 1.500E-01 0.600 F -0.001 -0.087 +11° 36' 51.10" 1.000E-01 0.600 F -0.122 0.237 16.0 0.70 -0.32 i 691 0.43 Yes Yes
1991WA O C 1995-11-22.42451 1.000E-05 05:11:56.380 1.500E-01 0.600 F -0.001 0.045 +11° 37' 17.10" 1.000E-01 0.600 F -0.122 0.200 16.0 0.70 -0.32 i 691 0.34 Yes Yes
2007KN4 O C 1995-11-23.31237 1.000E-05 02:12:15.700 1.500E-01 0.600 F -0.119 -0.466 +16° 12' 46.60" 1.000E-01 0.600 F 0.212 0.308 21.1 V 0.70 -0.16 i 691 0.93 Yes Yes
2007KN4 O C 1995-11-23.33405 1.000E-05 02:12:14.880 1.500E-01 0.600 F -0.119 0.962 +16° 12' 37.30" 1.000E-01 0.600 F 0.212 0.780 i 691 2.07 Yes No
2007KN4 O C 1995-11-23.35578 1.000E-05 02:12:13.850 1.500E-01 0.600 F -0.119 -0.656 +16° 12' 27.40" 1.000E-01 0.600 F 0.212 0.687 i 691 1.59 Yes No
Hephaistos O c 1995-11-24.39176 1.000E-05 03:01:26.100 1.500E-01 0.600 F -0.489 0.345 +23° 54' 59.20" 1.000E-01 0.600 F 0.294 -0.336 19.0 V 0.70 0.00 i 691 0.80 Yes Yes
Hephaistos O c 1995-11-24.41410 1.000E-05 03:01:24.610 1.500E-01 0.600 F -0.489 0.285 +23° 54' 53.70" 1.000E-01 0.600 F 0.294 -0.175 i 691 0.56 Yes No
Hephaistos O c 1995-11-24.43648 1.000E-05 03:01:23.120 1.500E-01 0.600 F -0.489 0.216 +23° 54' 48.00" 1.000E-01 0.600 F 0.294 -0.190 i 691 0.48 Yes No
1995QN3 O c 1995-11-26.10059 1.000E-05 22:51:27.900 1.500E-01 0.600 F -0.114 0.641 -06° 29' 51.60" 1.000E-01 0.600 F 0.203 -0.448 22.1 V 0.70 0.26 i 691 1.31 Yes Yes
1995QN3 O c 1995-11-26.10617 1.000E-05 22:51:28.220 1.500E-01 0.600 F -0.114 1.132 -06° 29' 51.30" 1.000E-01 0.600 F 0.203 -0.610 22.4 V 0.70 0.56 i 691 2.15 Yes Yes
1995QN3 O c 1995-11-26.11244 1.000E-05 22:51:28.540 1.500E-01 0.600 F -0.114 1.093 -06° 29' 50.80" 1.000E-01 0.600 F 0.203 -0.630 22.2 V 0.70 0.36 i 691 2.11 Yes Yes
1995SD1 O c 1995-11-30.20465 1.000E-05 02:34:25.930 1.500E-01 0.600 F -1.121 -0.111 -10° 10' 28.20" 1.000E-01 0.600 F 0.372 -0.308 21.5 V 0.70 0.59 i 691 0.57 Yes Yes
1995SD1 O c 1995-11-30.20955 1.000E-05 02:34:26.350 1.500E-01 0.600 F -1.121 0.401 -10° 10' 23.20" 1.000E-01 0.600 F 0.372 -0.087 21.4 V 0.70 0.49 i 691 0.76 Yes Yes
1995SD1 O c 1995-11-30.21485 1.000E-05 02:34:26.770 1.500E-01 0.600 F -1.121 0.451 -10° 10' 18.10" 1.000E-01 0.600 F 0.372 -0.160 21.3 V 0.70 0.39 i 691 0.88 Yes Yes
1998XE12 O C 1995-11-30.48258 1.000E-05 09:45:36.630 1.500E-01 0.600 F -0.001 0.054 +12° 05' 52.30" 1.000E-01 0.600 F -0.245 -0.479 i 691 0.81 Yes No
1998XE12 O C 1995-11-30.51118 1.000E-05 09:45:37.800 1.500E-01 0.600 F -0.001 -0.173 +12° 05' 31.70" 1.000E-01 0.600 F -0.245 -0.039 20.8 V 0.70 -0.42 i 691 0.30 Yes Yes
1998XE12 O C 1995-11-30.53976 1.000E-05 09:45:38.990 1.500E-01 0.600 F -0.001 -0.049 +12° 05' 10.70" 1.000E-01 0.600 F -0.245 0.051 i 691 0.12 Yes No
1995UO5 O C 1995-12-14.12542 1.000E-05 00:49:07.030 1.500E-01 0.600 F 0.382 0.317 +08° 23' 52.00" 1.000E-01 0.600 F -0.188 -0.257 20.4 0.70 -0.89 i 691 0.68 Yes Yes
1995UO5 O C 1995-12-14.13538 1.000E-05 00:49:06.490 1.500E-01 0.600 F 0.382 0.055 +08° 23' 55.50" 1.000E-01 0.600 F -0.188 -0.394 20.4 0.70 -0.89 i 691 0.67 Yes Yes
1995YR1 O c 1995-12-20.14438 1.000E-05 03:39:47.180 1.500E-01 0.600 F -0.108 -0.823 +14° 16' 58.10" 1.000E-01 0.600 F -0.009 -0.419 20.9 V 0.70 0.30 i 691 1.55 Yes Yes
1995YR1 O c 1995-12-20.16585 1.000E-05 03:39:40.550 1.500E-01 0.600 F -0.108 -0.569 +14° 16' 38.90" 1.000E-01 0.600 F -0.009 -0.656 21.0 V 0.70 0.40 i 691 1.45 Yes Yes
1995YR1 O c 1995-12-20.18716 1.000E-05 03:39:33.920 1.500E-01 0.600 F -0.108 -0.929 +14° 16' 20.40" 1.000E-01 0.600 F -0.009 -0.260 21.3 V 0.70 0.70 i 691 1.62 Yes Yes
1991CS O c 1995-12-20.52606 1.000E-05 13:51:36.610 1.500E-01 0.600 F 0.104 -1.564 -07° 24' 12.00" 1.000E-01 0.600 F 0.476 0.019 20.3 V 0.70 0.26 i 691 2.61 Yes Yes
1991CS O c 1995-12-20.53105 1.000E-05 13:51:37.640 1.500E-01 0.600 F 0.104 -0.411 -07° 24' 09.50" 1.000E-01 0.600 F 0.476 -0.084 20.0 V 0.70 -0.04 i 691 0.70 Yes Yes
1991CS O c 1995-12-20.53677 1.000E-05 13:51:38.760 1.500E-01 0.600 F 0.104 0.012 -07° 24' 06.60" 1.000E-01 0.600 F 0.476 -0.169 20.5 V 0.70 0.46 i 691 0.28 Yes Yes
1995YR1 O c 1995-12-22.21158 1.000E-05 03:29:12.800 1.500E-01 0.600 F -0.262 -0.511 +13° 45' 19.20" 1.000E-01 0.600 F -0.031 -0.011 20.8 V 0.70 0.19 i 691 0.86 Yes Yes
1995YR1 O c 1995-12-22.23056 1.000E-05 03:29:06.900 1.500E-01 0.600 F -0.262 0.806 +13° 45' 01.10" 1.000E-01 0.600 F -0.031 -0.120 21.0 V 0.70 0.39 i 691 1.36 Yes Yes
1995YR1 O c 1995-12-22.23442 1.000E-05 03:29:05.600 1.500E-01 0.600 F -0.262 -0.387 +13° 44' 57.60" 1.000E-01 0.600 F -0.031 0.047 20.8 V 0.70 0.19 i 691 0.65 Yes Yes
1995YR1 O c 1995-12-25.13702 1.000E-05 03:14:01.960 1.500E-01 0.600 F 0.077 -0.127 +12° 57' 35.10" 1.000E-01 0.600 F -0.226 0.019 20.9 V 0.70 0.26 i 691 0.21 Yes Yes
1995YR1 O c 1995-12-25.14422 1.000E-05 03:13:59.690 1.500E-01 0.600 F 0.077 0.306 +12° 57' 27.70" 1.000E-01 0.600 F -0.226 -0.153 21.0 V 0.70 0.36 i 691 0.57 Yes Yes
1995YR1 O c 1995-12-25.15153 1.000E-05 03:13:57.360 1.500E-01 0.600 F 0.077 0.384 +12° 57' 20.30" 1.000E-01 0.600 F -0.226 -0.206 i 691 0.73 Yes No

[1-200] [201-400] [401-600] [601-800] [801-1000] [1001-1200] [1201-1400] [1401-1600] [1601-1800] [1801-2000] [2001-2200] [2201-2400] [2401-2600] [2601-2800] [2801-3000] [3001-3200] [3201-3400] [3401-3600] [3601-3800] [3801-4000] [4001-4200] [4201-4400] [4401-4600] [4601-4800] [4801-5000] [5001-5200] [5201-5400] [5401-5600] [5601-5800] [5801-6000] [6001-6200] [6201-6400] [6401-6600] [6601-6800] [6801-7000] [7001-7200] [7201-7400] [7401-7600] [7601-7800] [7801-8000] [8001-8200] [8201-8400] [8401-8600] [8601-8800] [8801-9000] [9001-9200] [9201-9400] [9401-9600] [9601-9800] [9801-10000] [10001-10200] [10201-10400] [10401-10600] [10601-10800] [10801-11000] [11001-11200] [11201-11400] [11401-11600] [11601-11800] [11801-12000] [12001-12200] [12201-12400] [12401-12600] [12601-12800] [12801-13000] [13001-13200] [13201-13400] [13401-13600] [13601-13800] [13801-14000] [14001-14200] [14201-14400] [14401-14600] [14601-14800] [14801-15000] [15001-15200] [15201-15400] [15401-15600] [15601-15800] [15801-16000] [16001-16200] [16201-16400] [16401-16600] [16601-16800] [16801-17000] [17001-17200] [17201-17400] [17401-17600] [17601-17800] [17801-18000] [18001-18200] [18201-18400] [18401-18600] [18601-18800] [18801-19000] [19001-19200] [19201-19400] [19401-19600] [19601-19800] [19801-20000] [20001-20200] [20201-20400] [20401-20600] [20601-20800] [20801-21000] [21001-21200] [21201-21400] [21401-21600] [21601-21800] [21801-22000] [22001-22200] [22201-22400] [22401-22600] [22601-22800] [22801-23000] [23001-23200] [23201-23400] [23401-23600] [23601-23800] [23801-24000] [24001-24200] [24201-24400] [24401-24600] [24601-24800] [24801-25000] [25001-25200] [25201-25400] [25401-25600] [25601-25800] [25801-26000] [26001-26200] [26201-26400] [26401-26600] [26601-26800] [26801-27000] [27001-27200] [27201-27400] [27401-27600] [27601-27800] [27801-28000] [28001-28200] [28201-28400] [28401-28600] [28601-28800] [28801-29000] [29001-29200] [29201-29400] [29401-29600] [29601-29800] [29801-30000] [30001-30200] [30201-30400] [30401-30600] [30601-30800] [30801-31000] [31001-31200] [31201-31400] [31401-31600] [31601-31800] [31801-32000] [32001-32200] [32201-32400] [32401-32600] [32601-32800] [32801-33000] [33001-33200] [33201-33400] [33401-33600] [33601-33800] [33801-34000] [34001-34200] [34201-34400] [34401-34600] [34601-34800] [34801-35000] [35001-35200] [35201-35400] [35401-35600] [35601-35800] [35801-36000] [36001-36200] [36201-36400] [36401-36600] [36601-36800] [36801-37000] [37001-37200] [37201-37400] [37401-37600] [37601-37800] [37801-38000] [38001-38200] [38201-38400] [38401-38600] [38601-38800] [38801-39000] [39001-39200] [39201-39400] [39401-39600] [39601-39800] [39801-40000] [40001-40200] [40201-40400] [40401-40600] [40601-40800] [40801-41000] [41001-41200] [41201-41400] [41401-41600] [41601-41800] [41801-42000] [42001-42200] [42201-42400] [42401-42600] [42601-42800] [42801-43000] [43001-43200] [43201-43400] [43401-43600] [43601-43800] [43801-44000] [44001-44200] [44201-44400] [44401-44600] [44601-44800] [44801-45000] [45001-45200] [45201-45400] [45401-45600] [45601-45800] [45801-46000] [46001-46200] [46201-46400] [46401-46600] [46601-46800] [46801-47000] [47001-47200] [47201-47400] [47401-47600] [47601-47800] [47801-48000] [48001-48200] [48201-48400] [48401-48600] [48601-48800] [48801-49000] [49001-49200] [49201-49400] [49401-49600] [49601-49800] [49801-50000] [50001-50200] [50201-50400] [50401-50600] [50601-50741]